createdAt,value
2018-12-01T00:00:58.957Z,18.75
2018-12-01T00:02:00.004Z,18.75
2018-12-01T00:02:58.928Z,18.75
2018-12-01T00:03:59.160Z,18.75
2018-12-01T00:04:58.966Z,18.77
2018-12-01T00:05:59.338Z,18.74
2018-12-01T00:06:59.270Z,18.75
2018-12-01T00:07:59.100Z,18.73
2018-12-01T00:08:59.037Z,18.74
2018-12-01T00:09:58.990Z,18.73
2018-12-01T00:10:59.573Z,18.73
2018-12-01T00:11:58.926Z,18.73
2018-12-01T00:12:59.129Z,18.71
2018-12-01T00:13:58.916Z,18.71
2018-12-01T00:14:59.066Z,18.68
2018-12-01T00:15:59.168Z,18.71
2018-12-01T00:16:58.945Z,18.7
2018-12-01T00:17:59.069Z,18.7
2018-12-01T00:18:58.974Z,18.68
2018-12-01T00:19:59.045Z,18.7
2018-12-01T00:20:58.961Z,18.68
2018-12-01T00:21:59.061Z,18.68
2018-12-01T00:22:59.001Z,18.68
2018-12-01T00:23:58.933Z,18.66
2018-12-01T00:24:58.983Z,18.68
2018-12-01T00:25:59.379Z,18.68
2018-12-01T00:26:59.175Z,18.64
2018-12-01T00:27:58.920Z,18.66
2018-12-01T00:28:59.060Z,18.66
2018-12-01T00:29:58.912Z,18.68
2018-12-01T00:30:58.987Z,18.67
2018-12-01T00:31:58.975Z,18.66
2018-12-01T00:32:58.991Z,18.66
2018-12-01T00:33:59.061Z,18.66
2018-12-01T00:34:59.090Z,18.64
2018-12-01T00:35:59.045Z,18.63
2018-12-01T00:36:58.945Z,18.64
2018-12-01T00:37:59.383Z,18.62
2018-12-01T00:38:59.119Z,18.63
2018-12-01T00:39:59.009Z,18.63
2018-12-01T00:40:59.160Z,18.6
2018-12-01T00:41:58.890Z,18.6
2018-12-01T00:42:59.115Z,18.58
2018-12-01T00:43:59.494Z,18.62
2018-12-01T00:44:59.623Z,18.58
2018-12-01T00:45:58.984Z,18.58
2018-12-01T00:46:59.503Z,18.6
2018-12-01T00:47:58.962Z,18.58
2018-12-01T00:48:59.327Z,18.6
2018-12-01T00:49:58.951Z,18.58
2018-12-01T00:50:59.486Z,18.57
2018-12-01T00:51:59.407Z,18.57
2018-12-01T00:52:59.310Z,18.57
2018-12-01T00:53:59.044Z,18.58
2018-12-01T00:54:59.296Z,18.56
2018-12-01T00:55:59.906Z,18.57
2018-12-01T00:56:58.937Z,18.56
2018-12-01T00:57:59.295Z,18.56
2018-12-01T00:58:59.003Z,18.56
2018-12-01T00:59:59.186Z,18.56
2018-12-01T01:00:59.380Z,18.54
2018-12-01T01:01:59.508Z,18.53
2018-12-01T01:02:58.998Z,18.53
2018-12-01T01:03:58.982Z,18.54
2018-12-01T01:04:59.059Z,18.54
2018-12-01T01:05:59.576Z,18.53
2018-12-01T01:06:59.379Z,18.53
2018-12-01T01:07:59.003Z,18.51
2018-12-01T01:08:59.194Z,18.53
2018-12-01T01:09:59.306Z,18.51
2018-12-01T01:10:59.317Z,18.5
2018-12-01T01:11:59.122Z,18.53
2018-12-01T01:12:59.002Z,18.5
2018-12-01T01:13:59.098Z,18.53
2018-12-01T01:14:59.167Z,18.51
2018-12-01T01:15:59.216Z,18.51
2018-12-01T01:16:59.384Z,18.5
2018-12-01T01:17:58.989Z,18.49
2018-12-01T01:18:59.060Z,18.5
2018-12-01T01:19:58.927Z,18.49
2018-12-01T01:20:59.108Z,18.5
2018-12-01T01:21:58.980Z,18.5
2018-12-01T01:22:59.186Z,18.5
2018-12-01T01:23:59.045Z,18.5
2018-12-01T01:24:59.012Z,18.47
2018-12-01T01:25:59.064Z,18.49
2018-12-01T01:26:59.400Z,18.47
2018-12-01T01:27:59.365Z,18.49
2018-12-01T01:28:59.116Z,18.47
2018-12-01T01:29:58.921Z,18.47
2018-12-01T01:30:59.254Z,18.46
2018-12-01T01:31:59.139Z,18.46
2018-12-01T01:32:59.130Z,18.47
2018-12-01T01:33:59.139Z,18.46
2018-12-01T01:34:59.094Z,18.44
2018-12-01T01:35:59.302Z,18.46
2018-12-01T01:36:59.095Z,18.44
2018-12-01T01:38:00.534Z,18.44
2018-12-01T01:38:59.078Z,18.44
2018-12-01T01:39:58.997Z,18.44
2018-12-01T01:40:59.200Z,18.43
2018-12-01T01:41:59.175Z,18.41
2018-12-01T01:42:59.456Z,18.43
2018-12-01T01:43:59.067Z,18.43
2018-12-01T01:44:58.971Z,18.4
2018-12-01T01:45:59.293Z,18.44
2018-12-01T01:46:58.835Z,18.41
2018-12-01T01:47:59.186Z,18.39
2018-12-01T01:48:59.404Z,18.43
2018-12-01T01:49:59.007Z,18.41
2018-12-01T01:50:58.915Z,18.41
2018-12-01T01:51:59.062Z,18.4
2018-12-01T01:52:58.984Z,18.39
2018-12-01T01:53:58.865Z,18.41
2018-12-01T01:54:59.021Z,18.39
2018-12-01T01:55:58.930Z,18.39
2018-12-01T01:56:58.996Z,18.41
2018-12-01T01:57:58.857Z,18.39
2018-12-01T01:58:59.052Z,18.4
2018-12-01T01:59:58.775Z,18.4
2018-12-01T02:00:58.984Z,18.39
2018-12-01T02:01:58.800Z,18.39
2018-12-01T02:02:59.053Z,18.39
2018-12-01T02:03:59.155Z,18.39
2018-12-01T02:04:58.959Z,18.39
2018-12-01T02:05:59.047Z,18.37
2018-12-01T02:06:58.980Z,18.37
2018-12-01T02:07:58.994Z,18.36
2018-12-01T02:08:58.802Z,18.37
2018-12-01T02:09:59.049Z,18.36
2018-12-01T02:10:58.877Z,18.37
2018-12-01T02:11:58.967Z,18.36
2018-12-01T02:12:59.194Z,18.35
2018-12-01T02:13:59.165Z,18.33
2018-12-01T02:14:59.025Z,18.36
2018-12-01T02:15:59.067Z,18.35
2018-12-01T02:16:59.473Z,18.32
2018-12-01T02:17:58.929Z,18.35
2018-12-01T02:18:58.919Z,18.33
2018-12-01T02:19:59.080Z,18.36
2018-12-01T02:20:58.923Z,18.33
2018-12-01T02:21:59.113Z,18.33
2018-12-01T02:22:59.064Z,18.33
2018-12-01T02:23:58.977Z,18.35
2018-12-01T02:24:59.770Z,18.33
2018-12-01T02:25:59.659Z,18.32
2018-12-01T02:26:59.269Z,18.33
2018-12-01T02:27:59.915Z,18.33
2018-12-01T02:28:58.901Z,18.32
2018-12-01T02:29:58.878Z,18.3
2018-12-01T02:30:59.498Z,18.3
2018-12-01T02:31:59.148Z,18.32
2018-12-01T02:32:59.025Z,18.29
2018-12-01T02:33:58.828Z,18.28
2018-12-01T02:34:59.020Z,18.29
2018-12-01T02:35:58.860Z,18.3
2018-12-01T02:36:59.370Z,18.29
2018-12-01T02:37:59.237Z,18.29
2018-12-01T02:38:59.282Z,18.3
2018-12-01T02:39:59.393Z,18.29
2018-12-01T02:40:59.311Z,18.29
2018-12-01T02:41:59.325Z,18.29
2018-12-01T02:42:58.875Z,18.29
2018-12-01T02:43:58.886Z,18.26
2018-12-01T02:44:59.140Z,18.28
2018-12-01T02:45:59.291Z,18.28
2018-12-01T02:46:59.061Z,18.29
2018-12-01T02:47:58.845Z,18.26
2018-12-01T02:48:58.819Z,18.28
2018-12-01T02:49:59.560Z,18.25
2018-12-01T02:50:59.017Z,18.26
2018-12-01T02:51:59.157Z,18.25
2018-12-01T02:52:59.006Z,18.28
2018-12-01T02:53:59.078Z,18.25
2018-12-01T02:54:59.073Z,18.23
2018-12-01T02:55:58.970Z,18.25
2018-12-01T02:56:58.929Z,18.25
2018-12-01T02:57:59.206Z,18.23
2018-12-01T02:58:59.288Z,18.26
2018-12-01T02:59:58.967Z,18.25
2018-12-01T03:00:59.016Z,18.25
2018-12-01T03:01:59.031Z,18.26
2018-12-01T03:02:59.396Z,18.25
2018-12-01T03:03:58.876Z,18.22
2018-12-01T03:04:59.041Z,18.26
2018-12-01T03:05:58.751Z,18.23
2018-12-01T03:06:58.690Z,18.22
2018-12-01T03:07:58.945Z,18.22
2018-12-01T03:08:58.879Z,18.22
2018-12-01T03:09:59.200Z,18.22
2018-12-01T03:10:58.917Z,18.23
2018-12-01T03:11:59.362Z,18.22
2018-12-01T03:12:59.031Z,18.21
2018-12-01T03:13:59.066Z,18.22
2018-12-01T03:14:59.125Z,18.19
2018-12-01T03:15:59.146Z,18.21
2018-12-01T03:16:59.272Z,18.22
2018-12-01T03:17:59.202Z,18.22
2018-12-01T03:18:59.139Z,18.21
2018-12-01T03:19:58.842Z,18.19
2018-12-01T03:20:59.081Z,18.18
2018-12-01T03:21:58.886Z,18.21
2018-12-01T03:22:58.918Z,18.21
2018-12-01T03:23:59.047Z,18.21
2018-12-01T03:24:58.814Z,18.19
2018-12-01T03:25:58.843Z,18.19
2018-12-01T03:26:59.583Z,18.18
2018-12-01T03:27:59.035Z,18.21
2018-12-01T03:28:59.166Z,18.21
2018-12-01T03:29:58.955Z,18.18
2018-12-01T03:30:58.921Z,18.21
2018-12-01T03:31:59.362Z,18.16
2018-12-01T03:32:58.854Z,18.16
2018-12-01T03:33:58.812Z,18.19
2018-12-01T03:34:59.040Z,18.19
2018-12-01T03:35:58.898Z,18.18
2018-12-01T03:36:58.984Z,18.19
2018-12-01T03:37:58.827Z,18.18
2018-12-01T03:38:58.981Z,18.16
2018-12-01T03:39:58.897Z,18.16
2018-12-01T03:40:59.046Z,18.15
2018-12-01T03:41:58.896Z,18.15
2018-12-01T03:42:58.838Z,18.16
2018-12-01T03:43:58.871Z,18.18
2018-12-01T03:44:58.937Z,18.15
2018-12-01T03:45:59.178Z,18.15
2018-12-01T03:46:59.015Z,18.15
2018-12-01T03:47:58.888Z,18.13
2018-12-01T03:48:58.925Z,18.16
2018-12-01T03:49:59.059Z,18.15
2018-12-01T03:50:58.851Z,18.15
2018-12-01T03:51:58.800Z,18.13
2018-12-01T03:52:58.868Z,18.15
2018-12-01T03:53:58.995Z,18.11
2018-12-01T03:54:59.117Z,18.13
2018-12-01T03:55:58.891Z,18.15
2018-12-01T03:56:59.221Z,18.15
2018-12-01T03:57:58.871Z,18.13
2018-12-01T03:58:59.032Z,18.13
2018-12-01T03:59:58.732Z,18.11
2018-12-01T04:00:58.812Z,18.13
2018-12-01T04:01:59.428Z,18.12
2018-12-01T04:02:58.862Z,18.15
2018-12-01T04:03:59.136Z,18.12
2018-12-01T04:04:58.855Z,18.13
2018-12-01T04:05:59.370Z,18.12
2018-12-01T04:06:59.077Z,18.09
2018-12-01T04:07:58.987Z,18.11
2018-12-01T04:08:58.951Z,18.11
2018-12-01T04:09:59.037Z,18.09
2018-12-01T04:10:59.196Z,18.11
2018-12-01T04:11:59.007Z,18.11
2018-12-01T04:12:59.098Z,18.11
2018-12-01T04:13:59.127Z,18.09
2018-12-01T04:14:58.939Z,18.11
2018-12-01T04:15:59.216Z,18.08
2018-12-01T04:16:59.430Z,18.09
2018-12-01T04:17:59.112Z,18.08
2018-12-01T04:18:59.237Z,18.11
2018-12-01T04:19:58.848Z,18.09
2018-12-01T04:20:58.845Z,18.08
2018-12-01T04:21:59.106Z,18.05
2018-12-01T04:22:58.891Z,18.07
2018-12-01T04:23:59.175Z,18.09
2018-12-01T04:24:58.773Z,18.07
2018-12-01T04:25:59.079Z,18.09
2018-12-01T04:26:58.998Z,18.07
2018-12-01T04:27:58.838Z,18.07
2018-12-01T04:28:59.036Z,18.07
2018-12-01T04:29:59.333Z,18.05
2018-12-01T04:30:58.983Z,18.07
2018-12-01T04:31:58.997Z,18.08
2018-12-01T04:32:58.991Z,18.05
2018-12-01T04:33:58.740Z,18.07
2018-12-01T04:34:58.956Z,18.05
2018-12-01T04:35:59.017Z,18.04
2018-12-01T04:36:58.895Z,18.08
2018-12-01T04:37:59.269Z,18.05
2018-12-01T04:38:58.720Z,18.08
2018-12-01T04:39:59.296Z,18.07
2018-12-01T04:40:58.771Z,18.05
2018-12-01T04:41:59.131Z,18.04
2018-12-01T04:42:58.887Z,18.07
2018-12-01T04:43:58.951Z,18.05
2018-12-01T04:44:59.430Z,18.07
2018-12-01T04:45:59.417Z,18.07
2018-12-01T04:46:59.916Z,18.08
2018-12-01T04:47:58.779Z,18.08
2018-12-01T04:48:58.906Z,18.08
2018-12-01T04:49:58.883Z,18.07
2018-12-01T04:50:59.168Z,18.09
2018-12-01T04:51:58.729Z,18.12
2018-12-01T04:52:58.911Z,18.12
2018-12-01T04:53:59.044Z,18.15
2018-12-01T04:54:58.929Z,18.16
2018-12-01T04:55:59.033Z,18.18
2018-12-01T04:56:58.924Z,18.19
2018-12-01T04:57:59.330Z,18.21
2018-12-01T04:58:59.138Z,18.19
2018-12-01T04:59:59.132Z,18.22
2018-12-01T05:00:58.854Z,18.23
2018-12-01T05:01:59.008Z,18.29
2018-12-01T05:02:59.131Z,18.26
2018-12-01T05:03:59.357Z,18.28
2018-12-01T05:04:59.014Z,18.29
2018-12-01T05:05:58.756Z,18.32
2018-12-01T05:06:58.900Z,18.33
2018-12-01T05:07:58.914Z,18.32
2018-12-01T05:08:59.107Z,18.33
2018-12-01T05:09:58.953Z,18.36
2018-12-01T05:10:58.844Z,18.37
2018-12-01T05:11:58.999Z,18.4
2018-12-01T05:12:58.901Z,18.39
2018-12-01T05:13:58.916Z,18.43
2018-12-01T05:14:58.794Z,18.43
2018-12-01T05:15:59.047Z,18.46
2018-12-01T05:16:58.863Z,18.46
2018-12-01T05:17:58.930Z,18.46
2018-12-01T05:18:58.770Z,18.5
2018-12-01T05:19:59.059Z,18.51
2018-12-01T05:20:58.949Z,18.54
2018-12-01T05:21:58.899Z,18.53
2018-12-01T05:22:58.992Z,18.54
2018-12-01T05:23:58.857Z,18.57
2018-12-01T05:24:58.966Z,18.57
2018-12-01T05:25:58.729Z,18.6
2018-12-01T05:26:58.845Z,18.58
2018-12-01T05:27:59.131Z,18.64
2018-12-01T05:28:58.923Z,18.64
2018-12-01T05:29:59.204Z,18.66
2018-12-01T05:30:59.156Z,18.66
2018-12-01T05:31:59.042Z,18.67
2018-12-01T05:32:58.863Z,18.68
2018-12-01T05:33:58.927Z,18.68
2018-12-01T05:34:58.794Z,18.7
2018-12-01T05:35:58.981Z,18.7
2018-12-01T05:36:59.389Z,18.71
2018-12-01T05:37:59.029Z,18.75
2018-12-01T05:38:59.126Z,18.74
2018-12-01T05:39:58.906Z,18.75
2018-12-01T05:40:59.235Z,18.75
2018-12-01T05:41:59.038Z,18.77
2018-12-01T05:42:59.252Z,18.8
2018-12-01T05:43:59.006Z,18.8
2018-12-01T05:44:58.882Z,18.83
2018-12-01T05:45:58.816Z,18.8
2018-12-01T05:46:58.991Z,18.81
2018-12-01T05:47:59.271Z,18.81
2018-12-01T05:48:59.111Z,18.84
2018-12-01T05:49:58.932Z,18.87
2018-12-01T05:50:59.492Z,18.85
2018-12-01T05:51:59.108Z,18.9
2018-12-01T05:53:00.276Z,18.9
2018-12-01T05:53:58.835Z,18.9
2018-12-01T05:54:58.709Z,18.9
2018-12-01T05:55:58.973Z,18.91
2018-12-01T05:56:59.110Z,18.92
2018-12-01T05:57:58.929Z,18.95
2018-12-01T05:58:58.917Z,18.94
2018-12-01T05:59:58.963Z,18.97
2018-12-01T06:00:59.270Z,18.94
2018-12-01T06:01:58.863Z,18.97
2018-12-01T06:02:58.980Z,18.99
2018-12-01T06:03:58.805Z,18.98
2018-12-01T06:04:58.791Z,18.98
2018-12-01T06:05:59.228Z,18.99
2018-12-01T06:06:58.875Z,19.01
2018-12-01T06:07:58.898Z,19.02
2018-12-01T06:08:58.754Z,19.01
2018-12-01T06:09:58.965Z,19.03
2018-12-01T06:10:59.466Z,19.02
2018-12-01T06:11:59.403Z,19.03
2018-12-01T06:12:58.848Z,19.03
2018-12-01T06:13:58.844Z,19.08
2018-12-01T06:14:58.780Z,19.06
2018-12-01T06:15:58.934Z,19.09
2018-12-01T06:16:59.232Z,19.08
2018-12-01T06:17:58.868Z,19.09
2018-12-01T06:18:59.295Z,19.09
2018-12-01T06:19:58.755Z,19.11
2018-12-01T06:20:58.890Z,19.11
2018-12-01T06:21:58.746Z,19.12
2018-12-01T06:22:59.101Z,19.15
2018-12-01T06:23:59.368Z,19.16
2018-12-01T06:24:59.301Z,19.16
2018-12-01T06:25:59.020Z,19.18
2018-12-01T06:26:58.902Z,19.15
2018-12-01T06:27:59.156Z,19.18
2018-12-01T06:28:59.511Z,19.18
2018-12-01T06:29:58.836Z,19.18
2018-12-01T06:30:58.840Z,19.18
2018-12-01T06:31:59.053Z,19.22
2018-12-01T06:32:59.275Z,19.19
2018-12-01T06:33:58.802Z,19.22
2018-12-01T06:34:58.960Z,19.2
2018-12-01T06:35:58.738Z,19.23
2018-12-01T06:36:58.823Z,19.23
2018-12-01T06:37:58.888Z,19.23
2018-12-01T06:39:00.155Z,19.22
2018-12-01T06:39:59.018Z,19.27
2018-12-01T06:40:59.155Z,19.25
2018-12-01T06:41:58.677Z,19.25
2018-12-01T06:42:59.300Z,19.27
2018-12-01T06:43:58.921Z,19.25
2018-12-01T06:44:58.814Z,19.25
2018-12-01T06:45:58.934Z,19.29
2018-12-01T06:46:58.736Z,19.27
2018-12-01T06:47:58.959Z,19.27
2018-12-01T06:48:58.788Z,19.29
2018-12-01T06:49:58.941Z,19.3
2018-12-01T06:50:58.933Z,19.29
2018-12-01T06:51:58.910Z,19.32
2018-12-01T06:52:59.735Z,19.3
2018-12-01T06:53:58.870Z,19.3
2018-12-01T06:54:58.855Z,19.32
2018-12-01T06:55:58.728Z,19.33
2018-12-01T06:56:59.122Z,19.3
2018-12-01T06:57:58.734Z,19.35
2018-12-01T06:58:58.835Z,19.33
2018-12-01T06:59:58.792Z,19.33
2018-12-01T07:00:58.992Z,19.35
2018-12-01T07:01:58.854Z,19.36
2018-12-01T07:02:58.714Z,19.36
2018-12-01T07:03:58.989Z,19.35
2018-12-01T07:04:59.883Z,19.36
2018-12-01T07:05:58.945Z,19.37
2018-12-01T07:06:58.729Z,19.36
2018-12-01T07:07:59.139Z,19.39
2018-12-01T07:08:59.258Z,19.36
2018-12-01T07:09:58.828Z,19.37
2018-12-01T07:10:58.987Z,19.4
2018-12-01T07:11:59.094Z,19.39
2018-12-01T07:12:59.270Z,19.39
2018-12-01T07:13:58.826Z,19.42
2018-12-01T07:14:58.891Z,19.42
2018-12-01T07:15:58.973Z,19.42
2018-12-01T07:16:59.017Z,19.43
2018-12-01T07:17:59.296Z,19.42
2018-12-01T07:18:58.806Z,19.43
2018-12-01T07:19:59.141Z,19.42
2018-12-01T07:20:58.734Z,19.42
2018-12-01T07:21:59.122Z,19.43
2018-12-01T07:22:59.188Z,19.47
2018-12-01T07:23:58.962Z,19.45
2018-12-01T07:24:59.041Z,19.46
2018-12-01T07:25:58.817Z,19.47
2018-12-01T07:26:58.788Z,19.46
2018-12-01T07:27:58.939Z,19.47
2018-12-01T07:28:58.999Z,19.46
2018-12-01T07:29:58.898Z,19.5
2018-12-01T07:30:58.869Z,19.49
2018-12-01T07:31:59.071Z,19.47
2018-12-01T07:32:59.178Z,19.5
2018-12-01T07:33:58.794Z,19.52
2018-12-01T07:34:58.791Z,19.5
2018-12-01T07:35:58.663Z,19.52
2018-12-01T07:36:58.854Z,19.52
2018-12-01T07:37:58.895Z,19.53
2018-12-01T07:38:58.908Z,19.52
2018-12-01T07:39:58.924Z,19.53
2018-12-01T07:40:58.744Z,19.54
2018-12-01T07:41:58.826Z,19.53
2018-12-01T07:42:58.716Z,19.54
2018-12-01T07:43:58.883Z,19.57
2018-12-01T07:44:58.809Z,19.56
2018-12-01T07:45:58.937Z,19.6
2018-12-01T07:46:59.001Z,19.58
2018-12-01T07:47:58.850Z,19.58
2018-12-01T07:48:59.035Z,19.58
2018-12-01T07:49:59.172Z,19.6
2018-12-01T07:50:58.901Z,19.61
2018-12-01T07:51:58.793Z,19.6
2018-12-01T07:52:58.785Z,19.63
2018-12-01T07:53:59.159Z,19.63
2018-12-01T07:54:58.877Z,19.61
2018-12-01T07:55:58.917Z,19.63
2018-12-01T07:56:59.149Z,19.65
2018-12-01T07:57:59.369Z,19.64
2018-12-01T07:58:59.130Z,19.64
2018-12-01T07:59:59.091Z,19.64
2018-12-01T08:00:58.790Z,19.65
2018-12-01T08:01:59.237Z,19.68
2018-12-01T08:02:59.242Z,19.67
2018-12-01T08:03:59.102Z,19.68
2018-12-01T08:04:59.238Z,19.67
2018-12-01T08:05:59.049Z,19.68
2018-12-01T08:06:59.138Z,19.68
2018-12-01T08:07:59.063Z,19.68
2018-12-01T08:08:59.446Z,19.7
2018-12-01T08:09:58.720Z,19.7
2018-12-01T08:10:58.814Z,19.71
2018-12-01T08:11:58.863Z,19.71
2018-12-01T08:12:58.778Z,19.71
2018-12-01T08:13:58.903Z,19.67
2018-12-01T08:14:58.690Z,19.7
2018-12-01T08:15:59.213Z,19.68
2018-12-01T08:16:59.128Z,19.73
2018-12-01T08:17:58.869Z,19.71
2018-12-01T08:18:58.725Z,19.71
2018-12-01T08:19:58.863Z,19.7
2018-12-01T08:20:58.683Z,19.7
2018-12-01T08:21:58.813Z,19.73
2018-12-01T08:22:58.902Z,19.7
2018-12-01T08:23:58.922Z,19.68
2018-12-01T08:24:58.920Z,19.73
2018-12-01T08:25:58.667Z,19.73
2018-12-01T08:26:58.931Z,19.73
2018-12-01T08:27:58.724Z,19.7
2018-12-01T08:28:58.765Z,19.71
2018-12-01T08:29:58.702Z,19.73
2018-12-01T08:30:58.858Z,19.71
2018-12-01T08:31:58.877Z,19.71
2018-12-01T08:32:58.773Z,19.7
2018-12-01T08:33:58.904Z,19.74
2018-12-01T08:34:58.783Z,19.73
2018-12-01T08:35:58.791Z,19.7
2018-12-01T08:36:58.772Z,19.73
2018-12-01T08:37:58.982Z,19.71
2018-12-01T08:38:58.789Z,19.74
2018-12-01T08:39:58.743Z,19.7
2018-12-01T08:40:59.397Z,19.73
2018-12-01T08:41:58.766Z,19.74
2018-12-01T08:42:58.804Z,19.73
2018-12-01T08:43:58.811Z,19.73
2018-12-01T08:44:58.923Z,19.73
2018-12-01T08:45:58.876Z,19.71
2018-12-01T08:46:58.873Z,19.73
2018-12-01T08:47:58.633Z,19.74
2018-12-01T08:48:58.888Z,19.73
2018-12-01T08:49:58.991Z,19.74
2018-12-01T08:50:58.868Z,19.75
2018-12-01T08:51:58.870Z,19.71
2018-12-01T08:52:58.993Z,19.74
2018-12-01T08:53:58.867Z,19.74
2018-12-01T08:54:58.650Z,19.75
2018-12-01T08:55:58.832Z,19.74
2018-12-01T08:56:59.392Z,19.75
2018-12-01T08:57:58.720Z,19.75
2018-12-01T08:58:58.986Z,19.75
2018-12-01T08:59:58.728Z,19.74
2018-12-01T09:00:58.800Z,19.78
2018-12-01T09:01:59.329Z,19.77
2018-12-01T09:02:58.894Z,19.77
2018-12-01T09:03:58.975Z,19.75
2018-12-01T09:04:58.744Z,19.78
2018-12-01T09:05:59.280Z,19.78
2018-12-01T09:06:58.687Z,19.77
2018-12-01T09:07:58.867Z,19.78
2018-12-01T09:08:59.079Z,19.78
2018-12-01T09:09:58.824Z,19.78
2018-12-01T09:10:59.045Z,19.8
2018-12-01T09:11:59.173Z,19.82
2018-12-01T09:13:02.156Z,19.84
2018-12-01T09:13:58.766Z,19.82
2018-12-01T09:14:59.252Z,19.85
2018-12-01T09:15:58.984Z,19.85
2018-12-01T09:16:58.850Z,19.86
2018-12-01T09:17:58.801Z,19.91
2018-12-01T09:18:58.818Z,19.89
2018-12-01T09:19:59.219Z,19.91
2018-12-01T09:20:59.100Z,19.93
2018-12-01T09:21:58.837Z,19.91
2018-12-01T09:22:58.967Z,19.92
2018-12-01T09:23:58.837Z,19.95
2018-12-01T09:24:59.094Z,19.98
2018-12-01T09:25:58.723Z,19.96
2018-12-01T09:26:58.918Z,19.92
2018-12-01T09:27:58.922Z,19.89
2018-12-01T09:28:59.011Z,19.91
2018-12-01T09:29:58.995Z,19.89
2018-12-01T09:30:58.639Z,19.86
2018-12-01T09:31:58.785Z,19.88
2018-12-01T09:32:58.812Z,19.86
2018-12-01T09:33:59.056Z,19.86
2018-12-01T09:34:59.117Z,19.88
2018-12-01T09:35:58.899Z,19.88
2018-12-01T09:36:59.003Z,19.88
2018-12-01T09:37:58.933Z,19.85
2018-12-01T09:38:58.939Z,19.88
2018-12-01T09:39:58.647Z,19.86
2018-12-01T09:40:58.584Z,19.85
2018-12-01T09:41:58.725Z,19.86
2018-12-01T09:42:59.000Z,19.86
2018-12-01T09:43:58.730Z,19.88
2018-12-01T09:44:58.876Z,19.86
2018-12-01T09:45:58.752Z,19.88
2018-12-01T09:46:59.128Z,19.91
2018-12-01T09:47:58.814Z,19.89
2018-12-01T09:48:59.104Z,19.86
2018-12-01T09:49:58.849Z,19.88
2018-12-01T09:50:59.004Z,19.86
2018-12-01T09:51:58.922Z,19.88
2018-12-01T09:52:58.745Z,19.89
2018-12-01T09:53:58.746Z,19.91
2018-12-01T09:54:58.689Z,19.93
2018-12-01T09:55:59.356Z,19.93
2018-12-01T09:56:58.652Z,19.96
2018-12-01T09:57:58.695Z,19.99
2018-12-01T09:58:58.848Z,19.98
2018-12-01T09:59:58.770Z,19.96
2018-12-01T10:00:58.774Z,19.98
2018-12-01T10:01:58.800Z,19.98
2018-12-01T10:02:58.829Z,19.99
2018-12-01T10:03:58.660Z,19.98
2018-12-01T10:04:58.827Z,20.01
2018-12-01T10:05:59.051Z,19.99
2018-12-01T10:06:58.657Z,19.98
2018-12-01T10:07:58.958Z,20.02
2018-12-01T10:08:58.731Z,19.99
2018-12-01T10:09:58.834Z,19.98
2018-12-01T10:10:58.731Z,20.01
2018-12-01T10:11:58.695Z,19.98
2018-12-01T10:12:58.771Z,20.02
2018-12-01T10:13:58.759Z,20.01
2018-12-01T10:14:58.877Z,19.98
2018-12-01T10:15:58.778Z,19.98
2018-12-01T10:16:59.759Z,19.98
2018-12-01T10:17:59.110Z,19.99
2018-12-01T10:18:58.652Z,19.98
2018-12-01T10:19:58.858Z,19.98
2018-12-01T10:20:59.070Z,19.96
2018-12-01T10:21:59.190Z,19.98
2018-12-01T10:22:59.059Z,19.99
2018-12-01T10:23:59.092Z,19.98
2018-12-01T10:24:59.654Z,19.96
2018-12-01T10:26:00.353Z,19.95
2018-12-01T10:26:58.999Z,19.95
2018-12-01T10:27:58.910Z,19.92
2018-12-01T10:28:59.724Z,19.93
2018-12-01T10:29:58.651Z,19.92
2018-12-01T10:30:59.049Z,19.93
2018-12-01T10:31:58.794Z,19.95
2018-12-01T10:32:59.104Z,19.93
2018-12-01T10:33:58.870Z,19.96
2018-12-01T10:34:58.813Z,19.92
2018-12-01T10:35:58.712Z,19.93
2018-12-01T10:36:58.932Z,19.93
2018-12-01T10:37:58.848Z,19.91
2018-12-01T10:39:03.843Z,19.91
2018-12-01T10:39:59.236Z,19.92
2018-12-01T10:40:58.801Z,19.91
2018-12-01T10:42:03.921Z,19.91
2018-12-01T10:42:58.947Z,19.91
2018-12-01T10:43:58.855Z,19.89
2018-12-01T10:44:59.031Z,19.89
2018-12-01T10:45:58.834Z,19.91
2018-12-01T10:46:58.789Z,19.91
2018-12-01T10:47:59.087Z,19.92
2018-12-01T10:48:58.818Z,19.88
2018-12-01T10:49:58.626Z,19.88
2018-12-01T10:50:58.649Z,19.92
2018-12-01T10:51:59.130Z,19.91
2018-12-01T10:52:58.842Z,19.91
2018-12-01T10:53:59.135Z,19.89
2018-12-01T10:54:58.603Z,19.91
2018-12-01T10:55:58.820Z,19.89
2018-12-01T10:56:59.029Z,19.92
2018-12-01T10:57:58.813Z,19.89
2018-12-01T10:58:59.160Z,19.91
2018-12-01T10:59:58.634Z,19.91
2018-12-01T11:00:58.806Z,19.91
2018-12-01T11:01:58.637Z,19.92
2018-12-01T11:02:59.302Z,19.93
2018-12-01T11:03:58.727Z,19.93
2018-12-01T11:04:58.875Z,19.92
2018-12-01T11:05:58.913Z,19.93
2018-12-01T11:06:59.160Z,19.93
2018-12-01T11:07:59.137Z,19.96
2018-12-01T11:08:58.959Z,19.96
2018-12-01T11:09:58.917Z,20.01
2018-12-01T11:10:58.804Z,19.96
2018-12-01T11:11:58.851Z,19.99
2018-12-01T11:12:58.604Z,19.99
2018-12-01T11:13:58.971Z,20.02
2018-12-01T11:14:59.085Z,19.99
2018-12-01T11:15:58.827Z,20.01
2018-12-01T11:16:59.041Z,20.04
2018-12-01T11:17:58.657Z,20.04
2018-12-01T11:18:59.371Z,20.05
2018-12-01T11:19:58.550Z,20.07
2018-12-01T11:20:59.189Z,20.05
2018-12-01T11:21:58.759Z,20.08
2018-12-01T11:22:59.486Z,20.07
2018-12-01T11:23:58.894Z,20.08
2018-12-01T11:24:58.714Z,20.08
2018-12-01T11:25:58.834Z,20.11
2018-12-01T11:26:59.131Z,20.12
2018-12-01T11:27:58.814Z,20.13
2018-12-01T11:28:59.166Z,20.13
2018-12-01T11:29:58.986Z,20.16
2018-12-01T11:30:59.001Z,20.15
2018-12-01T11:31:58.962Z,20.13
2018-12-01T11:32:58.681Z,20.18
2018-12-01T11:33:58.649Z,20.18
2018-12-01T11:34:59.006Z,20.16
2018-12-01T11:35:58.819Z,20.15
2018-12-01T11:36:58.743Z,20.18
2018-12-01T11:37:58.753Z,20.16
2018-12-01T11:38:58.719Z,20.18
2018-12-01T11:39:58.760Z,20.16
2018-12-01T11:40:58.725Z,20.16
2018-12-01T11:41:59.133Z,20.15
2018-12-01T11:42:58.903Z,20.19
2018-12-01T11:43:58.846Z,20.19
2018-12-01T11:44:59.084Z,20.15
2018-12-01T11:45:58.757Z,20.13
2018-12-01T11:46:58.722Z,20.13
2018-12-01T11:47:58.597Z,20.12
2018-12-01T11:48:58.703Z,20.13
2018-12-01T11:49:58.617Z,20.12
2018-12-01T11:50:58.759Z,20.09
2018-12-01T11:51:59.767Z,20.09
2018-12-01T11:52:58.667Z,20.11
2018-12-01T11:53:58.809Z,20.11
2018-12-01T11:54:58.843Z,20.11
2018-12-01T11:55:58.833Z,20.11
2018-12-01T11:56:58.677Z,20.12
2018-12-01T11:57:58.701Z,20.12
2018-12-01T11:58:58.579Z,20.15
2018-12-01T11:59:58.728Z,20.16
2018-12-01T12:00:58.736Z,20.16
2018-12-01T12:02:00.936Z,20.15
2018-12-01T12:02:59.143Z,20.15
2018-12-01T12:03:58.670Z,20.15
2018-12-01T12:04:58.695Z,20.15
2018-12-01T12:05:58.997Z,20.12
2018-12-01T12:06:58.975Z,20.16
2018-12-01T12:07:58.946Z,20.13
2018-12-01T12:08:58.863Z,20.13
2018-12-01T12:09:59.167Z,20.13
2018-12-01T12:10:58.716Z,20.12
2018-12-01T12:11:59.243Z,20.13
2018-12-01T12:12:58.703Z,20.11
2018-12-01T12:13:59.078Z,20.11
2018-12-01T12:14:59.512Z,20.11
2018-12-01T12:15:58.795Z,20.11
2018-12-01T12:16:58.649Z,20.11
2018-12-01T12:17:58.678Z,20.11
2018-12-01T12:18:58.807Z,20.11
2018-12-01T12:19:59.474Z,20.11
2018-12-01T12:20:58.824Z,20.12
2018-12-01T12:21:58.712Z,20.12
2018-12-01T12:22:59.088Z,20.11
2018-12-01T12:23:58.995Z,20.12
2018-12-01T12:24:58.752Z,20.11
2018-12-01T12:25:58.660Z,20.12
2018-12-01T12:26:59.597Z,20.11
2018-12-01T12:27:59.721Z,20.12
2018-12-01T12:28:58.897Z,20.11
2018-12-01T12:29:58.840Z,20.09
2018-12-01T12:30:58.882Z,20.11
2018-12-01T12:31:58.865Z,20.11
2018-12-01T12:32:59.135Z,20.11
2018-12-01T12:33:59.107Z,20.11
2018-12-01T12:34:58.777Z,20.09
2018-12-01T12:35:58.911Z,20.11
2018-12-01T12:36:58.570Z,20.11
2018-12-01T12:37:58.743Z,20.12
2018-12-01T12:38:58.795Z,20.09
2018-12-01T12:39:59.372Z,20.09
2018-12-01T12:40:58.973Z,20.12
2018-12-01T12:41:59.011Z,20.12
2018-12-01T12:42:59.386Z,20.08
2018-12-01T12:43:58.998Z,20.11
2018-12-01T12:44:58.499Z,20.09
2018-12-01T12:45:58.542Z,20.09
2018-12-01T12:46:58.851Z,20.09
2018-12-01T12:47:58.963Z,20.11
2018-12-01T12:48:59.000Z,20.08
2018-12-01T12:49:59.030Z,20.12
2018-12-01T12:50:59.095Z,20.12
2018-12-01T12:51:58.758Z,20.12
2018-12-01T12:52:58.922Z,20.15
2018-12-01T12:53:59.520Z,20.18
2018-12-01T12:54:58.854Z,20.16